sensor_id;sensor_type;location;lat;lon;timestamp;P1;durP1;ratioP1;P2;durP2;ratioP2
12970;SDS011;6550;48.650;8.774;2023-03-03T00:02:07;19.13;;;15.55;;
12970;SDS011;6550;48.650;8.774;2023-03-03T00:04:34;18.13;;;14.40;;
12970;SDS011;6550;48.650;8.774;2023-03-03T00:07:03;17.20;;;13.33;;
12970;SDS011;6550;48.650;8.774;2023-03-03T00:09:32;20.47;;;13.73;;
12970;SDS011;6550;48.650;8.774;2023-03-03T00:11:59;19.17;;;13.53;;
12970;SDS011;6550;48.650;8.774;2023-03-03T00:14:31;19.93;;;13.77;;
12970;SDS011;6550;48.650;8.774;2023-03-03T00:17:01;19.43;;;13.20;;
12970;SDS011;6550;48.650;8.774;2023-03-03T00:19:53;18.97;;;13.17;;
12970;SDS011;6550;48.650;8.774;2023-03-03T00:22:30;19.77;;;13.27;;
12970;SDS011;6550;48.650;8.774;2023-03-03T00:25:35;18.57;;;13.57;;
12970;SDS011;6550;48.650;8.774;2023-03-03T00:27:59;23.37;;;13.80;;
12970;SDS011;6550;48.650;8.774;2023-03-03T00:30:41;18.00;;;13.33;;
12970;SDS011;6550;48.650;8.774;2023-03-03T00:35:54;18.10;;;12.70;;
12970;SDS011;6550;48.650;8.774;2023-03-03T00:38:24;17.73;;;13.37;;
12970;SDS011;6550;48.650;8.774;2023-03-03T00:40:52;19.40;;;13.60;;
12970;SDS011;6550;48.650;8.774;2023-03-03T00:45:51;19.30;;;13.77;;
12970;SDS011;6550;48.650;8.774;2023-03-03T00:50:48;21.87;;;14.73;;
12970;SDS011;6550;48.650;8.774;2023-03-03T00:53:17;19.57;;;13.70;;
12970;SDS011;6550;48.650;8.774;2023-03-03T00:55:48;20.20;;;14.53;;
12970;SDS011;6550;48.650;8.774;2023-03-03T00:58:23;19.80;;;14.30;;
12970;SDS011;6550;48.650;8.774;2023-03-03T01:00:51;20.05;;;14.23;;
12970;SDS011;6550;48.650;8.774;2023-03-03T01:03:23;17.53;;;13.90;;
12970;SDS011;6550;48.650;8.774;2023-03-03T01:05:51;20.83;;;13.53;;
12970;SDS011;6550;48.650;8.774;2023-03-03T01:08:19;18.70;;;14.20;;
12970;SDS011;6550;48.650;8.774;2023-03-03T01:10:48;21.37;;;14.63;;
12970;SDS011;6550;48.650;8.774;2023-03-03T01:13:25;20.13;;;13.57;;
12970;SDS011;6550;48.650;8.774;2023-03-03T01:15:54;19.43;;;13.90;;
12970;SDS011;6550;48.650;8.774;2023-03-03T01:18:23;24.53;;;14.23;;
12970;SDS011;6550;48.650;8.774;2023-03-03T01:20:49;17.63;;;13.13;;
12970;SDS011;6550;48.650;8.774;2023-03-03T01:23:16;20.43;;;14.47;;
12970;SDS011;6550;48.650;8.774;2023-03-03T01:25:45;20.63;;;13.27;;
12970;SDS011;6550;48.650;8.774;2023-03-03T01:28:12;16.33;;;12.77;;
12970;SDS011;6550;48.650;8.774;2023-03-03T01:30:39;19.83;;;15.80;;
12970;SDS011;6550;48.650;8.774;2023-03-03T01:33:06;17.73;;;13.83;;
12970;SDS011;6550;48.650;8.774;2023-03-03T01:35:41;18.33;;;13.83;;
12970;SDS011;6550;48.650;8.774;2023-03-03T01:38:09;17.63;;;13.13;;
12970;SDS011;6550;48.650;8.774;2023-03-03T01:40:38;19.03;;;13.53;;
12970;SDS011;6550;48.650;8.774;2023-03-03T01:43:10;19.90;;;12.73;;
12970;SDS011;6550;48.650;8.774;2023-03-03T01:48:13;20.40;;;12.63;;
12970;SDS011;6550;48.650;8.774;2023-03-03T01:51:18;19.40;;;13.00;;
12970;SDS011;6550;48.650;8.774;2023-03-03T01:53:50;20.50;;;13.33;;
12970;SDS011;6550;48.650;8.774;2023-03-03T01:56:23;17.97;;;13.47;;
12970;SDS011;6550;48.650;8.774;2023-03-03T01:58:53;20.17;;;12.83;;
12970;SDS011;6550;48.650;8.774;2023-03-03T02:01:26;17.67;;;12.47;;
12970;SDS011;6550;48.650;8.774;2023-03-03T02:03:54;18.47;;;12.90;;
12970;SDS011;6550;48.650;8.774;2023-03-03T02:06:32;17.17;;;12.43;;
12970;SDS011;6550;48.650;8.774;2023-03-03T02:09:08;19.13;;;12.67;;
12970;SDS011;6550;48.650;8.774;2023-03-03T02:11:47;16.63;;;12.23;;
12970;SDS011;6550;48.650;8.774;2023-03-03T02:14:19;17.77;;;12.20;;
12970;SDS011;6550;48.650;8.774;2023-03-03T02:16:49;17.77;;;11.77;;
12970;SDS011;6550;48.650;8.774;2023-03-03T02:22:15;18.90;;;13.03;;
12970;SDS011;6550;48.650;8.774;2023-03-03T02:24:50;18.17;;;11.60;;
12970;SDS011;6550;48.650;8.774;2023-03-03T02:27:25;17.13;;;12.70;;
12970;SDS011;6550;48.650;8.774;2023-03-03T02:29:54;15.67;;;11.90;;
12970;SDS011;6550;48.650;8.774;2023-03-03T02:32:20;18.52;;;14.65;;
12970;SDS011;6550;48.650;8.774;2023-03-03T02:34:50;16.83;;;12.73;;
12970;SDS011;6550;48.650;8.774;2023-03-03T02:37:18;16.43;;;12.30;;
12970;SDS011;6550;48.650;8.774;2023-03-03T02:39:45;16.37;;;12.70;;
12970;SDS011;6550;48.650;8.774;2023-03-03T02:42:18;15.17;;;10.73;;
12970;SDS011;6550;48.650;8.774;2023-03-03T02:44:52;15.07;;;11.60;;
12970;SDS011;6550;48.650;8.774;2023-03-03T02:47:21;17.63;;;12.37;;
12970;SDS011;6550;48.650;8.774;2023-03-03T02:49:49;16.20;;;11.30;;
12970;SDS011;6550;48.650;8.774;2023-03-03T02:52:18;16.80;;;11.87;;
12970;SDS011;6550;48.650;8.774;2023-03-03T02:54:44;17.70;;;11.87;;
12970;SDS011;6550;48.650;8.774;2023-03-03T02:57:14;16.20;;;11.53;;
12970;SDS011;6550;48.650;8.774;2023-03-03T02:59:40;16.50;;;11.70;;
12970;SDS011;6550;48.650;8.774;2023-03-03T03:02:07;18.05;;;13.93;;
12970;SDS011;6550;48.650;8.774;2023-03-03T03:04:36;18.47;;;12.57;;
12970;SDS011;6550;48.650;8.774;2023-03-03T03:07:03;16.60;;;12.30;;
12970;SDS011;6550;48.650;8.774;2023-03-03T03:09:29;17.33;;;12.30;;
12970;SDS011;6550;48.650;8.774;2023-03-03T03:11:56;17.50;;;12.07;;
12970;SDS011;6550;48.650;8.774;2023-03-03T03:14:27;17.43;;;12.77;;
12970;SDS011;6550;48.650;8.774;2023-03-03T03:16:54;15.97;;;12.10;;
12970;SDS011;6550;48.650;8.774;2023-03-03T03:19:21;16.63;;;11.30;;
12970;SDS011;6550;48.650;8.774;2023-03-03T03:21:53;16.00;;;11.13;;
12970;SDS011;6550;48.650;8.774;2023-03-03T03:24:22;17.97;;;11.20;;
12970;SDS011;6550;48.650;8.774;2023-03-03T03:26:51;17.20;;;11.80;;
12970;SDS011;6550;48.650;8.774;2023-03-03T03:29:17;17.57;;;11.50;;
12970;SDS011;6550;48.650;8.774;2023-03-03T03:31:47;17.00;;;11.50;;
12970;SDS011;6550;48.650;8.774;2023-03-03T03:34:16;19.27;;;12.00;;
12970;SDS011;6550;48.650;8.774;2023-03-03T03:36:47;16.70;;;11.90;;
12970;SDS011;6550;48.650;8.774;2023-03-03T03:39:16;16.20;;;12.03;;
12970;SDS011;6550;48.650;8.774;2023-03-03T03:41:43;16.20;;;11.97;;
12970;SDS011;6550;48.650;8.774;2023-03-03T03:44:12;15.87;;;11.60;;
12970;SDS011;6550;48.650;8.774;2023-03-03T03:46:38;16.47;;;12.03;;
12970;SDS011;6550;48.650;8.774;2023-03-03T03:49:05;17.57;;;11.70;;
12970;SDS011;6550;48.650;8.774;2023-03-03T03:51:36;16.17;;;11.40;;
12970;SDS011;6550;48.650;8.774;2023-03-03T03:54:06;17.30;;;12.00;;
12970;SDS011;6550;48.650;8.774;2023-03-03T03:56:33;16.60;;;11.93;;
12970;SDS011;6550;48.650;8.774;2023-03-03T03:59:02;17.60;;;12.67;;
12970;SDS011;6550;48.650;8.774;2023-03-03T04:01:32;16.70;;;11.63;;
12970;SDS011;6550;48.650;8.774;2023-03-03T04:03:58;17.58;;;13.60;;
12970;SDS011;6550;48.650;8.774;2023-03-03T04:06:29;16.63;;;11.70;;
12970;SDS011;6550;48.650;8.774;2023-03-03T04:08:56;16.80;;;12.13;;
12970;SDS011;6550;48.650;8.774;2023-03-03T04:11:25;17.67;;;12.67;;
12970;SDS011;6550;48.650;8.774;2023-03-03T04:13:52;16.70;;;12.37;;
12970;SDS011;6550;48.650;8.774;2023-03-03T04:16:21;17.50;;;12.40;;
12970;SDS011;6550;48.650;8.774;2023-03-03T04:18:48;18.03;;;13.10;;
12970;SDS011;6550;48.650;8.774;2023-03-03T04:21:15;15.07;;;11.20;;
12970;SDS011;6550;48.650;8.774;2023-03-03T04:23:44;18.33;;;12.23;;
12970;SDS011;6550;48.650;8.774;2023-03-03T04:26:13;17.70;;;12.03;;
12970;SDS011;6550;48.650;8.774;2023-03-03T04:28:42;16.30;;;12.17;;
12970;SDS011;6550;48.650;8.774;2023-03-03T04:31:11;17.63;;;11.80;;
12970;SDS011;6550;48.650;8.774;2023-03-03T04:33:41;18.92;;;13.35;;
12970;SDS011;6550;48.650;8.774;2023-03-03T04:36:07;20.23;;;13.00;;
12970;SDS011;6550;48.650;8.774;2023-03-03T04:38:34;18.57;;;12.63;;
12970;SDS011;6550;48.650;8.774;2023-03-03T04:41:01;17.90;;;12.37;;
12970;SDS011;6550;48.650;8.774;2023-03-03T04:43:30;19.10;;;12.93;;
12970;SDS011;6550;48.650;8.774;2023-03-03T04:45:57;18.40;;;12.90;;
12970;SDS011;6550;48.650;8.774;2023-03-03T04:48:24;17.60;;;12.07;;
12970;SDS011;6550;48.650;8.774;2023-03-03T04:50:53;20.23;;;13.40;;
12970;SDS011;6550;48.650;8.774;2023-03-03T04:53:19;19.10;;;13.10;;
12970;SDS011;6550;48.650;8.774;2023-03-03T04:55:48;16.60;;;12.33;;
12970;SDS011;6550;48.650;8.774;2023-03-03T04:58:23;17.47;;;12.50;;
12970;SDS011;6550;48.650;8.774;2023-03-03T05:00:53;16.80;;;12.47;;
12970;SDS011;6550;48.650;8.774;2023-03-03T05:03:21;19.73;;;12.83;;
12970;SDS011;6550;48.650;8.774;2023-03-03T05:05:48;20.07;;;13.30;;
12970;SDS011;6550;48.650;8.774;2023-03-03T05:08:15;18.03;;;13.17;;
12970;SDS011;6550;48.650;8.774;2023-03-03T05:10:42;19.00;;;12.63;;
12970;SDS011;6550;48.650;8.774;2023-03-03T05:13:12;21.73;;;13.37;;
12970;SDS011;6550;48.650;8.774;2023-03-03T05:15:40;18.43;;;12.93;;
12970;SDS011;6550;48.650;8.774;2023-03-03T05:18:10;19.20;;;13.90;;
12970;SDS011;6550;48.650;8.774;2023-03-03T05:20:38;20.35;;;15.35;;
12970;SDS011;6550;48.650;8.774;2023-03-03T05:23:07;20.27;;;13.37;;
12970;SDS011;6550;48.650;8.774;2023-03-03T05:25:34;18.93;;;13.57;;
12970;SDS011;6550;48.650;8.774;2023-03-03T05:28:00;18.80;;;12.70;;
12970;SDS011;6550;48.650;8.774;2023-03-03T05:30:29;16.93;;;13.00;;
12970;SDS011;6550;48.650;8.774;2023-03-03T05:32:57;21.73;;;14.40;;
12970;SDS011;6550;48.650;8.774;2023-03-03T05:35:26;18.23;;;13.53;;
12970;SDS011;6550;48.650;8.774;2023-03-03T05:37:53;19.00;;;14.95;;
12970;SDS011;6550;48.650;8.774;2023-03-03T05:40:20;17.33;;;12.97;;
12970;SDS011;6550;48.650;8.774;2023-03-03T05:42:47;19.43;;;14.13;;
12970;SDS011;6550;48.650;8.774;2023-03-03T05:45:17;19.13;;;13.37;;
12970;SDS011;6550;48.650;8.774;2023-03-03T05:47:49;20.67;;;14.00;;
12970;SDS011;6550;48.650;8.774;2023-03-03T05:50:20;19.43;;;13.63;;
12970;SDS011;6550;48.650;8.774;2023-03-03T05:52:48;21.83;;;13.40;;
12970;SDS011;6550;48.650;8.774;2023-03-03T05:55:16;18.43;;;13.63;;
12970;SDS011;6550;48.650;8.774;2023-03-03T05:57:45;18.07;;;13.20;;
12970;SDS011;6550;48.650;8.774;2023-03-03T06:00:13;18.10;;;13.17;;
12970;SDS011;6550;48.650;8.774;2023-03-03T06:02:40;16.17;;;12.53;;
12970;SDS011;6550;48.650;8.774;2023-03-03T06:05:08;19.00;;;12.73;;
12970;SDS011;6550;48.650;8.774;2023-03-03T06:07:35;17.60;;;12.70;;
12970;SDS011;6550;48.650;8.774;2023-03-03T06:10:02;18.60;;;12.90;;
12970;SDS011;6550;48.650;8.774;2023-03-03T06:12:29;20.10;;;13.57;;
12970;SDS011;6550;48.650;8.774;2023-03-03T06:14:56;17.63;;;12.87;;
12970;SDS011;6550;48.650;8.774;2023-03-03T06:17:25;17.57;;;12.97;;
12970;SDS011;6550;48.650;8.774;2023-03-03T06:19:52;19.13;;;13.57;;
12970;SDS011;6550;48.650;8.774;2023-03-03T06:22:18;20.13;;;14.20;;
12970;SDS011;6550;48.650;8.774;2023-03-03T06:24:45;19.43;;;13.27;;
12970;SDS011;6550;48.650;8.774;2023-03-03T06:27:14;19.50;;;13.53;;
12970;SDS011;6550;48.650;8.774;2023-03-03T06:29:41;17.83;;;12.90;;
12970;SDS011;6550;48.650;8.774;2023-03-03T06:32:11;18.83;;;13.67;;
12970;SDS011;6550;48.650;8.774;2023-03-03T06:34:42;21.27;;;12.87;;
12970;SDS011;6550;48.650;8.774;2023-03-03T06:37:13;19.20;;;13.13;;
12970;SDS011;6550;48.650;8.774;2023-03-03T06:39:40;17.87;;;13.37;;
12970;SDS011;6550;48.650;8.774;2023-03-03T06:42:09;18.67;;;13.67;;
12970;SDS011;6550;48.650;8.774;2023-03-03T06:44:36;22.40;;;13.87;;
12970;SDS011;6550;48.650;8.774;2023-03-03T06:47:03;18.20;;;13.20;;
12970;SDS011;6550;48.650;8.774;2023-03-03T06:49:32;18.83;;;13.67;;
12970;SDS011;6550;48.650;8.774;2023-03-03T06:51:59;19.70;;;15.37;;
12970;SDS011;6550;48.650;8.774;2023-03-03T06:54:30;20.70;;;13.60;;
12970;SDS011;6550;48.650;8.774;2023-03-03T06:56:58;18.83;;;13.93;;
12970;SDS011;6550;48.650;8.774;2023-03-03T06:59:35;22.60;;;14.00;;
12970;SDS011;6550;48.650;8.774;2023-03-03T07:02:03;20.53;;;13.07;;
12970;SDS011;6550;48.650;8.774;2023-03-03T07:04:43;23.40;;;13.53;;
12970;SDS011;6550;48.650;8.774;2023-03-03T07:07:16;17.87;;;13.50;;
12970;SDS011;6550;48.650;8.774;2023-03-03T07:09:52;18.97;;;13.73;;
12970;SDS011;6550;48.650;8.774;2023-03-03T07:12:24;20.23;;;13.67;;
12970;SDS011;6550;48.650;8.774;2023-03-03T07:15:01;19.57;;;14.33;;
12970;SDS011;6550;48.650;8.774;2023-03-03T07:17:41;19.87;;;12.80;;
12970;SDS011;6550;48.650;8.774;2023-03-03T07:20:18;21.73;;;14.07;;
12970;SDS011;6550;48.650;8.774;2023-03-03T07:22:47;21.33;;;14.30;;
12970;SDS011;6550;48.650;8.774;2023-03-03T07:25:18;19.57;;;13.80;;
12970;SDS011;6550;48.650;8.774;2023-03-03T07:28:41;18.90;;;13.87;;
12970;SDS011;6550;48.650;8.774;2023-03-03T07:30:52;20.40;;;14.13;;
12970;SDS011;6550;48.650;8.774;2023-03-03T07:33:40;20.13;;;14.13;;
12970;SDS011;6550;48.650;8.774;2023-03-03T07:41:51;21.50;;;15.10;;
12970;SDS011;6550;48.650;8.774;2023-03-03T07:44:20;20.10;;;14.47;;
12970;SDS011;6550;48.650;8.774;2023-03-03T07:46:52;19.30;;;13.90;;
12970;SDS011;6550;48.650;8.774;2023-03-03T07:54:52;22.05;;;18.77;;
12970;SDS011;6550;48.650;8.774;2023-03-03T07:57:25;22.87;;;17.63;;
12970;SDS011;6550;48.650;8.774;2023-03-03T08:02:43;21.33;;;16.20;;
12970;SDS011;6550;48.650;8.774;2023-03-03T08:08:11;16.67;;;11.20;;
12970;SDS011;6550;48.650;8.774;2023-03-03T08:13:21;18.50;;;15.10;;
12970;SDS011;6550;48.650;8.774;2023-03-03T08:15:51;18.40;;;14.53;;
12970;SDS011;6550;48.650;8.774;2023-03-03T08:18:23;15.77;;;12.30;;
12970;SDS011;6550;48.650;8.774;2023-03-03T08:21:11;16.05;;;12.95;;
12970;SDS011;6550;48.650;8.774;2023-03-03T08:23:38;14.80;;;11.67;;
12970;SDS011;6550;48.650;8.774;2023-03-03T08:26:05;15.80;;;11.20;;
12970;SDS011;6550;48.650;8.774;2023-03-03T08:28:33;12.87;;;11.10;;
12970;SDS011;6550;48.650;8.774;2023-03-03T08:31:02;13.87;;;10.37;;
12970;SDS011;6550;48.650;8.774;2023-03-03T08:33:47;11.77;;;10.13;;
12970;SDS011;6550;48.650;8.774;2023-03-03T08:36:16;11.77;;;10.53;;
12970;SDS011;6550;48.650;8.774;2023-03-03T08:38:46;12.37;;;10.17;;
12970;SDS011;6550;48.650;8.774;2023-03-03T08:41:15;15.40;;;10.07;;
12970;SDS011;6550;48.650;8.774;2023-03-03T08:43:41;10.00;;;9.00;;
12970;SDS011;6550;48.650;8.774;2023-03-03T08:46:11;10.50;;;9.33;;
12970;SDS011;6550;48.650;8.774;2023-03-03T08:48:40;13.17;;;9.87;;
12970;SDS011;6550;48.650;8.774;2023-03-03T08:51:10;13.83;;;9.33;;
12970;SDS011;6550;48.650;8.774;2023-03-03T08:53:39;10.30;;;9.03;;
12970;SDS011;6550;48.650;8.774;2023-03-03T08:56:06;26.07;;;10.00;;
12970;SDS011;6550;48.650;8.774;2023-03-03T08:58:37;95.70;;;14.67;;
12970;SDS011;6550;48.650;8.774;2023-03-03T09:01:27;153.73;;;16.33;;
12970;SDS011;6550;48.650;8.774;2023-03-03T09:03:54;194.77;;;20.53;;
12970;SDS011;6550;48.650;8.774;2023-03-03T09:06:21;193.27;;;19.43;;
12970;SDS011;6550;48.650;8.774;2023-03-03T09:08:48;144.67;;;16.70;;
12970;SDS011;6550;48.650;8.774;2023-03-03T09:11:19;86.33;;;14.37;;
12970;SDS011;6550;48.650;8.774;2023-03-03T09:13:50;61.63;;;12.43;;
12970;SDS011;6550;48.650;8.774;2023-03-03T09:16:18;65.00;;;11.53;;
12970;SDS011;6550;48.650;8.774;2023-03-03T09:18:47;34.00;;;10.13;;
12970;SDS011;6550;48.650;8.774;2023-03-03T09:21:18;31.33;;;10.53;;
12970;SDS011;6550;48.650;8.774;2023-03-03T09:23:57;29.90;;;9.70;;
12970;SDS011;6550;48.650;8.774;2023-03-03T09:26:30;21.87;;;9.27;;
12970;SDS011;6550;48.650;8.774;2023-03-03T09:29:06;18.13;;;9.77;;
12970;SDS011;6550;48.650;8.774;2023-03-03T09:34:15;18.23;;;8.47;;
12970;SDS011;6550;48.650;8.774;2023-03-03T09:36:56;16.92;;;8.93;;
12970;SDS011;6550;48.650;8.774;2023-03-03T09:39:26;15.30;;;8.40;;
12970;SDS011;6550;48.650;8.774;2023-03-03T09:47:17;11.27;;;8.30;;
12970;SDS011;6550;48.650;8.774;2023-03-03T09:55:17;15.97;;;13.83;;
12970;SDS011;6550;48.650;8.774;2023-03-03T10:06:17;16.47;;;13.97;;
12970;SDS011;6550;48.650;8.774;2023-03-03T10:11:49;18.08;;;14.27;;
12970;SDS011;6550;48.650;8.774;2023-03-03T10:17:13;18.60;;;14.50;;
12970;SDS011;6550;48.650;8.774;2023-03-03T10:20:03;17.70;;;14.87;;
12970;SDS011;6550;48.650;8.774;2023-03-03T10:22:51;20.93;;;16.33;;
12970;SDS011;6550;48.650;8.774;2023-03-03T10:31:02;21.20;;;15.70;;
12970;SDS011;6550;48.650;8.774;2023-03-03T10:39:27;19.57;;;15.93;;
12970;SDS011;6550;48.650;8.774;2023-03-03T10:45:24;20.63;;;17.00;;
12970;SDS011;6550;48.650;8.774;2023-03-03T10:53:20;19.57;;;15.10;;
12970;SDS011;6550;48.650;8.774;2023-03-03T11:09:43;21.40;;;17.00;;
12970;SDS011;6550;48.650;8.774;2023-03-03T11:15:17;19.57;;;16.67;;
12970;SDS011;6550;48.650;8.774;2023-03-03T11:23:20;20.80;;;15.57;;
12970;SDS011;6550;48.650;8.774;2023-03-03T11:26:05;22.03;;;17.80;;
12970;SDS011;6550;48.650;8.774;2023-03-03T11:37:13;20.93;;;16.43;;
12970;SDS011;6550;48.650;8.774;2023-03-03T11:39:54;21.20;;;16.90;;
12970;SDS011;6550;48.650;8.774;2023-03-03T11:45:14;19.60;;;15.83;;
12970;SDS011;6550;48.650;8.774;2023-03-03T11:47:58;23.40;;;16.27;;
12970;SDS011;6550;48.650;8.774;2023-03-03T11:50:34;21.60;;;16.27;;
12970;SDS011;6550;48.650;8.774;2023-03-03T11:53:28;19.15;;;17.15;;
12970;SDS011;6550;48.650;8.774;2023-03-03T12:01:53;19.17;;;15.77;;
12970;SDS011;6550;48.650;8.774;2023-03-03T12:07:08;18.00;;;15.33;;
12970;SDS011;6550;48.650;8.774;2023-03-03T12:24:15;18.07;;;15.13;;
12970;SDS011;6550;48.650;8.774;2023-03-03T12:26:59;17.23;;;14.97;;
12970;SDS011;6550;48.650;8.774;2023-03-03T12:32:31;17.30;;;14.53;;
12970;SDS011;6550;48.650;8.774;2023-03-03T12:35:03;17.93;;;13.60;;
12970;SDS011;6550;48.650;8.774;2023-03-03T12:37:49;21.07;;;14.00;;
12970;SDS011;6550;48.650;8.774;2023-03-03T12:40:33;21.47;;;15.20;;
12970;SDS011;6550;48.650;8.774;2023-03-03T12:43:16;18.03;;;14.23;;
12970;SDS011;6550;48.650;8.774;2023-03-03T12:48:44;15.67;;;13.83;;
12970;SDS011;6550;48.650;8.774;2023-03-03T12:53:53;22.13;;;14.40;;
12970;SDS011;6550;48.650;8.774;2023-03-03T12:56:51;16.37;;;13.70;;
12970;SDS011;6550;48.650;8.774;2023-03-03T13:08:25;16.27;;;14.27;;
12970;SDS011;6550;48.650;8.774;2023-03-03T13:16:18;20.03;;;14.77;;
12970;SDS011;6550;48.650;8.774;2023-03-03T13:19:10;18.00;;;13.97;;
12970;SDS011;6550;48.650;8.774;2023-03-03T13:27:03;14.80;;;13.17;;
12970;SDS011;6550;48.650;8.774;2023-03-03T13:29:42;18.37;;;13.90;;
12970;SDS011;6550;48.650;8.774;2023-03-03T13:38:12;16.83;;;13.50;;
12970;SDS011;6550;48.650;8.774;2023-03-03T13:40:53;17.67;;;12.63;;
12970;SDS011;6550;48.650;8.774;2023-03-03T13:43:49;15.40;;;12.43;;
12970;SDS011;6550;48.650;8.774;2023-03-03T13:51:47;16.97;;;13.87;;
12970;SDS011;6550;48.650;8.774;2023-03-03T13:57:14;19.07;;;13.80;;
12970;SDS011;6550;48.650;8.774;2023-03-03T14:03:02;18.07;;;14.83;;
12970;SDS011;6550;48.650;8.774;2023-03-03T14:05:45;15.17;;;13.43;;
12970;SDS011;6550;48.650;8.774;2023-03-03T14:13:48;17.90;;;14.10;;
12970;SDS011;6550;48.650;8.774;2023-03-03T14:19:05;18.20;;;14.40;;
12970;SDS011;6550;48.650;8.774;2023-03-03T14:27:36;17.30;;;14.07;;
12970;SDS011;6550;48.650;8.774;2023-03-03T14:33:33;19.10;;;14.63;;
12970;SDS011;6550;48.650;8.774;2023-03-03T14:41:14;17.47;;;14.87;;
12970;SDS011;6550;48.650;8.774;2023-03-03T14:43:56;21.70;;;14.60;;
12970;SDS011;6550;48.650;8.774;2023-03-03T14:46:32;19.27;;;14.57;;
12970;SDS011;6550;48.650;8.774;2023-03-03T14:49:04;17.37;;;14.03;;
12970;SDS011;6550;48.650;8.774;2023-03-03T14:54:15;17.92;;;15.60;;
12970;SDS011;6550;48.650;8.774;2023-03-03T14:56:55;16.90;;;13.90;;
12970;SDS011;6550;48.650;8.774;2023-03-03T14:59:22;15.90;;;13.57;;
12970;SDS011;6550;48.650;8.774;2023-03-03T15:07:42;16.73;;;13.50;;
12970;SDS011;6550;48.650;8.774;2023-03-03T15:10:11;17.13;;;15.07;;
12970;SDS011;6550;48.650;8.774;2023-03-03T15:12:51;17.77;;;14.27;;
12970;SDS011;6550;48.650;8.774;2023-03-03T15:15:18;16.90;;;13.17;;
12970;SDS011;6550;48.650;8.774;2023-03-03T15:34:12;19.23;;;15.47;;
12970;SDS011;6550;48.650;8.774;2023-03-03T15:42:32;22.13;;;14.13;;
12970;SDS011;6550;48.650;8.774;2023-03-03T15:45:16;20.25;;;16.45;;
12970;SDS011;6550;48.650;8.774;2023-03-03T15:59:37;17.35;;;13.25;;
12970;SDS011;6550;48.650;8.774;2023-03-03T16:02:19;19.70;;;13.17;;
12970;SDS011;6550;48.650;8.774;2023-03-03T16:04:55;16.77;;;14.00;;
12970;SDS011;6550;48.650;8.774;2023-03-03T16:10:46;16.67;;;13.43;;
12970;SDS011;6550;48.650;8.774;2023-03-03T16:24:55;17.97;;;13.83;;
12970;SDS011;6550;48.650;8.774;2023-03-03T16:28:05;18.90;;;13.67;;
12970;SDS011;6550;48.650;8.774;2023-03-03T16:33:51;18.93;;;13.60;;
12970;SDS011;6550;48.650;8.774;2023-03-03T16:39:16;17.97;;;13.47;;
12970;SDS011;6550;48.650;8.774;2023-03-03T17:03:57;19.80;;;14.33;;
12970;SDS011;6550;48.650;8.774;2023-03-03T17:20:13;18.13;;;13.37;;
12970;SDS011;6550;48.650;8.774;2023-03-03T17:31:40;18.10;;;12.70;;
12970;SDS011;6550;48.650;8.774;2023-03-03T17:42:23;17.95;;;13.95;;
12970;SDS011;6550;48.650;8.774;2023-03-03T17:45:02;18.37;;;12.90;;
12970;SDS011;6550;48.650;8.774;2023-03-03T17:47:37;17.60;;;12.77;;
12970;SDS011;6550;48.650;8.774;2023-03-03T17:56:20;17.27;;;11.60;;
12970;SDS011;6550;48.650;8.774;2023-03-03T18:10:26;17.10;;;11.33;;
12970;SDS011;6550;48.650;8.774;2023-03-03T18:32:58;16.63;;;11.33;;
12970;SDS011;6550;48.650;8.774;2023-03-03T18:35:37;15.10;;;10.50;;
12970;SDS011;6550;48.650;8.774;2023-03-03T18:46:43;16.33;;;11.17;;
12970;SDS011;6550;48.650;8.774;2023-03-03T19:02:12;15.23;;;11.03;;
12970;SDS011;6550;48.650;8.774;2023-03-03T19:04:55;15.53;;;11.13;;
12970;SDS011;6550;48.650;8.774;2023-03-03T19:12:53;16.40;;;11.23;;
12970;SDS011;6550;48.650;8.774;2023-03-03T19:18:04;17.80;;;11.97;;
12970;SDS011;6550;48.650;8.774;2023-03-03T19:21:00;15.57;;;11.98;;
12970;SDS011;6550;48.650;8.774;2023-03-03T19:24:00;15.17;;;11.37;;
12970;SDS011;6550;48.650;8.774;2023-03-03T19:32:27;14.60;;;10.93;;
12970;SDS011;6550;48.650;8.774;2023-03-03T19:48:34;16.03;;;11.53;;
12970;SDS011;6550;48.650;8.774;2023-03-03T19:56:52;16.07;;;11.97;;
12970;SDS011;6550;48.650;8.774;2023-03-03T20:10:32;16.07;;;11.40;;
12970;SDS011;6550;48.650;8.774;2023-03-03T20:16:22;16.73;;;11.60;;
12970;SDS011;6550;48.650;8.774;2023-03-03T20:19:09;17.60;;;13.65;;
12970;SDS011;6550;48.650;8.774;2023-03-03T20:22:02;16.83;;;12.00;;
12970;SDS011;6550;48.650;8.774;2023-03-03T20:24:41;18.93;;;12.03;;
12970;SDS011;6550;48.650;8.774;2023-03-03T20:27:35;16.67;;;11.53;;
12970;SDS011;6550;48.650;8.774;2023-03-03T20:30:19;15.90;;;10.90;;
12970;SDS011;6550;48.650;8.774;2023-03-03T20:47:12;18.23;;;12.37;;
12970;SDS011;6550;48.650;8.774;2023-03-03T20:52:24;17.60;;;12.33;;
12970;SDS011;6550;48.650;8.774;2023-03-03T20:54:58;20.00;;;13.37;;
12970;SDS011;6550;48.650;8.774;2023-03-03T21:06:04;16.97;;;12.60;;
12970;SDS011;6550;48.650;8.774;2023-03-03T21:11:16;18.70;;;12.97;;
12970;SDS011;6550;48.650;8.774;2023-03-03T21:13:47;21.43;;;13.07;;
12970;SDS011;6550;48.650;8.774;2023-03-03T21:18:56;18.00;;;13.23;;
12970;SDS011;6550;48.650;8.774;2023-03-03T21:21:27;16.73;;;11.97;;
12970;SDS011;6550;48.650;8.774;2023-03-03T21:24:06;20.43;;;13.10;;
12970;SDS011;6550;48.650;8.774;2023-03-03T21:31:53;17.50;;;13.07;;
12970;SDS011;6550;48.650;8.774;2023-03-03T21:36:50;18.93;;;12.73;;
12970;SDS011;6550;48.650;8.774;2023-03-03T21:39:21;18.53;;;13.07;;
12970;SDS011;6550;48.650;8.774;2023-03-03T21:44:40;17.93;;;13.23;;
12970;SDS011;6550;48.650;8.774;2023-03-03T21:47:13;21.17;;;12.87;;
12970;SDS011;6550;48.650;8.774;2023-03-03T21:49:44;19.13;;;13.37;;
12970;SDS011;6550;48.650;8.774;2023-03-03T21:52:16;17.17;;;12.70;;
12970;SDS011;6550;48.650;8.774;2023-03-03T21:54:44;20.67;;;12.90;;
12970;SDS011;6550;48.650;8.774;2023-03-03T21:57:14;17.40;;;12.27;;
12970;SDS011;6550;48.650;8.774;2023-03-03T21:59:44;18.10;;;12.13;;
12970;SDS011;6550;48.650;8.774;2023-03-03T22:02:11;17.40;;;12.27;;
12970;SDS011;6550;48.650;8.774;2023-03-03T22:04:38;19.73;;;12.47;;
12970;SDS011;6550;48.650;8.774;2023-03-03T22:07:06;16.30;;;11.93;;
12970;SDS011;6550;48.650;8.774;2023-03-03T22:09:36;17.93;;;12.57;;
12970;SDS011;6550;48.650;8.774;2023-03-03T22:12:03;18.13;;;12.37;;
12970;SDS011;6550;48.650;8.774;2023-03-03T22:14:33;20.13;;;13.13;;
12970;SDS011;6550;48.650;8.774;2023-03-03T22:17:00;16.53;;;11.73;;
12970;SDS011;6550;48.650;8.774;2023-03-03T22:19:27;18.53;;;12.13;;
12970;SDS011;6550;48.650;8.774;2023-03-03T22:21:54;18.00;;;12.17;;
12970;SDS011;6550;48.650;8.774;2023-03-03T22:24:21;16.17;;;12.23;;
12970;SDS011;6550;48.650;8.774;2023-03-03T22:26:50;18.52;;;13.93;;
12970;SDS011;6550;48.650;8.774;2023-03-03T22:29:19;18.40;;;11.97;;
12970;SDS011;6550;48.650;8.774;2023-03-03T22:31:48;15.90;;;11.33;;
12970;SDS011;6550;48.650;8.774;2023-03-03T22:34:17;17.17;;;12.67;;
12970;SDS011;6550;48.650;8.774;2023-03-03T22:36:44;16.20;;;11.53;;
12970;SDS011;6550;48.650;8.774;2023-03-03T22:39:11;18.10;;;13.10;;
12970;SDS011;6550;48.650;8.774;2023-03-03T22:41:40;17.03;;;11.40;;
12970;SDS011;6550;48.650;8.774;2023-03-03T22:44:07;17.97;;;12.10;;
12970;SDS011;6550;48.650;8.774;2023-03-03T22:46:36;18.03;;;12.23;;
12970;SDS011;6550;48.650;8.774;2023-03-03T22:49:03;18.93;;;12.93;;
12970;SDS011;6550;48.650;8.774;2023-03-03T22:51:29;16.33;;;11.60;;
12970;SDS011;6550;48.650;8.774;2023-03-03T22:53:56;17.27;;;11.73;;
12970;SDS011;6550;48.650;8.774;2023-03-03T22:56:23;17.10;;;11.57;;